Time;durP1;ratioP1;P1;durP2;ratioP2;P2;SDS_P1;SDS_P2;PMS_P1;PMS_P2;Temp;Humidity;BMP_temperature;BMP_pressure;BME280_temperature;BME280_humidity;BME280_pressure;Samples;Min_cycle;Max_cycle;Signal;HPM_P1;HPM_P2
2022/03/13 00:01:01;;;;;;;14.68;9.25;;;2.50;44.40;;;;;;2071309;28;20030;-67
2022/03/13 00:02:04;;;;;;;16.02;9.55;;;2.40;44.80;;;;;;2069363;28;20638;-67
2022/03/13 00:03:06;;;;;;;15.07;9.40;;;2.40;45.00;;;;;;2071884;28;20049;-69
2022/03/13 00:04:08;;;;;;;18.40;10.15;;;2.40;45.00;;;;;;2071178;28;20034;-69
2022/03/13 00:05:14;;;;;;;15.68;9.95;;;2.50;44.70;;;;;;2071812;28;20043;-67
2022/03/13 00:06:27;;;;;;;16.00;9.70;;;2.50;44.50;;;;;;2069833;28;20476;-68
2022/03/13 00:07:34;;;;;;;15.98;9.60;;;2.60;44.40;;;;;;2067755;28;20436;-68
2022/03/13 00:08:35;;;;;;;16.35;9.63;;;2.50;44.30;;;;;;2071538;28;20096;-68
2022/03/13 00:09:37;;;;;;;14.15;9.30;;;2.50;44.70;;;;;;2067409;28;20444;-67
2022/03/13 00:10:38;;;;;;;16.75;9.63;;;2.50;44.90;;;;;;2072781;28;20061;-68
2022/03/13 00:11:40;;;;;;;17.20;9.73;;;2.50;44.90;;;;;;2071334;28;20033;-67
2022/03/13 00:12:41;;;;;;;16.38;9.25;;;2.50;44.70;;;;;;2060840;28;20108;-68
2022/03/13 00:13:51;;;;;;;14.18;9.32;;;2.50;44.80;;;;;;2055951;28;20097;-69
2022/03/13 00:14:55;;;;;;;16.35;9.75;;;2.50;44.70;;;;;;2065697;28;20701;-68
2022/03/13 00:15:56;;;;;;;15.55;9.25;;;2.50;44.70;;;;;;2071419;28;20060;-68
2022/03/13 00:16:57;;;;;;;16.38;9.13;;;2.50;44.60;;;;;;2071838;28;20018;-68
2022/03/13 00:17:59;;;;;;;13.32;8.85;;;2.50;44.30;;;;;;2071412;28;20026;-68
2022/03/13 00:19:00;;;;;;;16.75;9.95;;;2.50;44.30;;;;;;2069485;28;20029;-69
2022/03/13 00:20:03;;;;;;;14.98;9.40;;;2.50;44.30;;;;;;2072299;28;20270;-70
2022/03/13 00:21:04;;;;;;;13.77;9.18;;;2.50;44.50;;;;;;2070099;28;20068;-68
2022/03/13 00:22:06;;;;;;;13.80;8.98;;;2.50;44.60;;;;;;2071395;28;20025;-69
2022/03/13 00:23:07;;;;;;;15.23;9.20;;;2.50;44.70;;;;;;2071164;28;20112;-70
2022/03/13 00:24:07;;;;;;;15.38;8.73;;;2.40;45.00;;;;;;2070993;28;20033;-68
2022/03/13 00:25:13;;;;;;;15.45;9.63;;;2.40;45.20;;;;;;2069312;28;20115;-68
2022/03/13 00:26:15;;;;;;;22.02;9.65;;;2.40;45.40;;;;;;2072444;28;20041;-69
2022/03/13 00:27:16;;;;;;;15.05;8.73;;;2.30;45.40;;;;;;2070275;28;20069;-69
2022/03/13 00:28:17;;;;;;;19.00;9.07;;;2.30;45.40;;;;;;2071676;28;20545;-68
2022/03/13 00:29:19;;;;;;;14.52;8.93;;;2.30;45.40;;;;;;2071755;28;20037;-68
2022/03/13 00:30:20;;;;;;;17.00;9.70;;;2.20;45.30;;;;;;2070846;28;20045;-69
2022/03/13 00:31:21;;;;;;;14.30;9.30;;;2.20;45.40;;;;;;2061342;28;20034;-68
2022/03/13 00:32:22;;;;;;;14.40;9.48;;;2.30;45.50;;;;;;2071973;28;20117;-67
2022/03/13 00:33:23;;;;;;;13.55;8.82;;;2.30;45.30;;;;;;2069753;28;20034;-67
2022/03/13 00:34:24;;;;;;;15.43;9.25;;;2.30;45.50;;;;;;2070425;28;20030;-68
2022/03/13 00:35:25;;;;;;;15.32;9.43;;;2.30;45.40;;;;;;2071882;28;20041;-68
2022/03/13 00:36:26;;;;;;;13.65;9.02;;;2.30;45.60;;;;;;2071493;28;20040;-68
2022/03/13 00:37:30;;;;;;;17.88;9.63;;;2.20;45.60;;;;;;2071164;28;20121;-69
2022/03/13 00:38:31;;;;;;;14.65;9.55;;;2.20;45.50;;;;;;2071054;28;20875;-68
2022/03/13 00:39:32;;;;;;;14.82;9.35;;;2.30;45.40;;;;;;2064167;28;20451;-69
2022/03/13 00:40:34;;;;;;;19.58;9.85;;;2.20;45.80;;;;;;2071126;28;20019;-69
2022/03/13 00:41:36;;;;;;;16.15;9.57;;;2.20;46.00;;;;;;2071273;28;20022;-69
2022/03/13 00:42:37;;;;;;;14.32;9.07;;;2.20;45.80;;;;;;2070680;28;20021;-69
2022/03/13 00:43:42;;;;;;;15.43;9.52;;;2.10;45.90;;;;;;2072714;28;20029;-69
2022/03/13 00:44:43;;;;;;;15.02;9.20;;;2.10;46.10;;;;;;2069595;28;20042;-68
2022/03/13 00:45:43;;;;;;;14.85;9.52;;;2.10;46.00;;;;;;2070375;28;20022;-68
2022/03/13 00:46:47;;;;;;;16.40;9.57;;;2.10;46.00;;;;;;2069040;28;20156;-68
2022/03/13 00:47:48;;;;;;;15.85;9.45;;;2.10;46.20;;;;;;2065137;28;20076;-69
2022/03/13 00:48:49;;;;;;;15.02;9.40;;;2.20;46.20;;;;;;2069759;28;20065;-68
2022/03/13 00:49:50;;;;;;;15.40;9.27;;;2.20;46.10;;;;;;2072590;28;20030;-68
2022/03/13 00:50:51;;;;;;;15.75;9.40;;;2.20;46.20;;;;;;2069712;28;20024;-68
2022/03/13 00:51:52;;;;;;;15.18;9.25;;;2.10;46.10;;;;;;2071062;28;20022;-68
2022/03/13 00:52:53;;;;;;;16.55;9.32;;;2.20;46.00;;;;;;2071183;28;20025;-68
2022/03/13 00:53:54;;;;;;;13.80;9.40;;;2.10;46.20;;;;;;2070072;28;20038;-69
2022/03/13 00:54:55;;;;;;;16.08;9.40;;;2.10;46.30;;;;;;2060697;28;20022;-69
2022/03/13 00:55:55;;;;;;;15.05;9.20;;;2.10;46.20;;;;;;2058697;28;20053;-68
2022/03/13 00:56:56;;;;;;;14.15;9.50;;;2.10;46.00;;;;;;2064705;28;20095;-68
2022/03/13 00:57:57;;;;;;;15.80;9.55;;;2.10;46.30;;;;;;2070341;28;20018;-68
2022/03/13 00:58:59;;;;;;;15.52;9.70;;;2.10;46.30;;;;;;2071150;28;20032;-68
2022/03/13 00:59:59;;;;;;;15.00;9.27;;;2.10;46.10;;;;;;2070812;28;20032;-67
2022/03/13 01:01:00;;;;;;;17.58;9.85;;;2.10;46.30;;;;;;2069512;28;20037;-67
2022/03/13 01:02:01;;;;;;;16.23;10.05;;;2.10;46.20;;;;;;2072618;28;20032;-69
2022/03/13 01:03:05;;;;;;;14.80;9.23;;;2.10;46.20;;;;;;2069426;28;20113;-67
2022/03/13 01:04:06;;;;;;;15.18;9.32;;;2.10;46.00;;;;;;2071006;28;20967;-68
2022/03/13 01:05:11;;;;;;;15.80;9.38;;;2.20;46.10;;;;;;2071772;28;20034;-69
2022/03/13 01:06:13;;;;;;;14.55;9.60;;;2.20;46.20;;;;;;2064602;28;20054;-69
2022/03/13 01:07:15;;;;;;;16.27;9.73;;;2.20;46.00;;;;;;2061112;28;20029;-69
2022/03/13 01:08:16;;;;;;;18.90;9.98;;;2.20;45.90;;;;;;2071801;28;20096;-69
2022/03/13 01:09:17;;;;;;;16.75;9.30;;;2.20;45.80;;;;;;2068745;28;20025;-70
2022/03/13 01:10:18;;;;;;;19.48;9.73;;;2.20;46.00;;;;;;2070863;28;20029;-69
2022/03/13 01:11:21;;;;;;;16.63;9.77;;;2.20;46.30;;;;;;2072094;28;20034;-69
2022/03/13 01:12:22;;;;;;;14.80;9.43;;;2.20;46.50;;;;;;2069930;28;20039;-68
2022/03/13 01:13:23;;;;;;;17.95;10.20;;;2.10;46.20;;;;;;2068909;28;20026;-68
2022/03/13 01:14:23;;;;;;;15.10;9.50;;;2.10;46.10;;;;;;2069865;28;20061;-68
2022/03/13 01:15:26;;;;;;;14.70;9.45;;;2.10;46.10;;;;;;2069963;28;20082;-69
2022/03/13 01:16:33;;;;;;;15.25;9.15;;;2.10;46.50;;;;;;2070806;28;20572;-69
2022/03/13 01:17:34;;;;;;;14.65;9.20;;;2.10;46.50;;;;;;2070905;28;20037;-69
2022/03/13 01:18:40;;;;;;;15.40;9.57;;;2.00;46.60;;;;;;2069984;28;20057;-68
2022/03/13 01:19:40;;;;;;;15.38;9.80;;;2.00;46.70;;;;;;2070105;28;20030;-68
2022/03/13 01:20:45;;;;;;;15.05;9.45;;;2.00;46.70;;;;;;2070305;28;20625;-68
2022/03/13 01:21:45;;;;;;;16.30;9.75;;;2.00;46.60;;;;;;2070687;28;20370;-67
2022/03/13 01:22:46;;;;;;;16.77;9.70;;;2.10;46.70;;;;;;2069621;28;20041;-67
2022/03/13 01:24:01;;;;;;;17.83;9.40;;;2.10;46.70;;;;;;2061898;28;20506;-69
2022/03/13 01:25:02;;;;;;;18.15;9.75;;;2.00;46.60;;;;;;2070032;28;20070;-69
2022/03/13 01:26:21;;;;;;;16.83;9.50;;;2.10;46.40;;;;;;2070472;28;20443;-68
2022/03/13 01:27:23;;;;;;;15.40;9.23;;;2.10;46.60;;;;;;2070604;28;20470;-68
2022/03/13 01:28:24;;;;;;;17.60;9.43;;;2.10;46.40;;;;;;2070544;28;20042;-69
2022/03/13 01:29:24;;;;;;;14.68;9.18;;;2.10;46.50;;;;;;2069854;28;20033;-68
2022/03/13 01:30:25;;;;;;;14.20;9.20;;;2.10;46.50;;;;;;2069729;28;20079;-68
2022/03/13 01:31:32;;;;;;;17.42;9.65;;;2.00;46.60;;;;;;2070402;28;20072;-68
2022/03/13 01:32:33;;;;;;;16.25;8.82;;;2.00;46.60;;;;;;2070378;28;20473;-69
2022/03/13 01:33:34;;;;;;;14.95;9.25;;;2.00;46.90;;;;;;2070280;28;20030;-68
2022/03/13 01:34:35;;;;;;;15.63;9.68;;;2.00;47.00;;;;;;2069627;28;20025;-69
2022/03/13 01:35:35;;;;;;;16.15;9.52;;;2.00;47.10;;;;;;2069817;28;20436;-67
2022/03/13 01:36:38;;;;;;;14.55;9.32;;;2.10;47.10;;;;;;2070535;28;20029;-68
2022/03/13 01:37:42;;;;;;;15.05;9.65;;;2.00;46.90;;;;;;2070594;28;20044;-68
2022/03/13 01:38:47;;;;;;;15.80;9.20;;;2.00;46.70;;;;;;2070713;28;20034;-68
2022/03/13 01:39:48;;;;;;;16.17;9.50;;;2.10;46.50;;;;;;2070456;28;20663;-67
2022/03/13 01:40:49;;;;;;;15.18;9.73;;;2.10;46.70;;;;;;2070468;28;20078;-67
2022/03/13 01:41:49;;;;;;;16.60;9.98;;;2.00;46.70;;;;;;2070415;28;20033;-68
2022/03/13 01:42:54;;;;;;;15.25;9.02;;;2.00;46.80;;;;;;2069684;28;20045;-66
2022/03/13 01:43:56;;;;;;;14.65;9.02;;;2.00;46.80;;;;;;2069760;28;20057;-69
2022/03/13 01:44:57;;;;;;;15.27;9.73;;;1.90;47.10;;;;;;2070500;28;20117;-68
2022/03/13 01:45:59;;;;;;;15.55;9.13;;;1.90;47.20;;;;;;2070261;28;20034;-69
2022/03/13 01:47:01;;;;;;;16.10;9.50;;;1.90;47.30;;;;;;2070463;28;20117;-69
2022/03/13 01:48:01;;;;;;;15.40;8.98;;;1.90;47.20;;;;;;2070526;28;20021;-68
2022/03/13 01:49:05;;;;;;;14.23;8.98;;;1.90;47.40;;;;;;2070568;28;20040;-69
2022/03/13 01:50:09;;;;;;;16.33;9.20;;;1.90;47.60;;;;;;2070448;28;20030;-69
2022/03/13 01:51:11;;;;;;;16.75;9.30;;;1.90;47.60;;;;;;2070440;28;20123;-67
2022/03/13 01:52:12;;;;;;;14.82;9.10;;;1.90;47.50;;;;;;2070604;28;20013;-67
2022/03/13 01:53:14;;;;;;;17.30;9.73;;;1.80;47.50;;;;;;2069580;28;20762;-68
2022/03/13 01:54:14;;;;;;;15.95;9.50;;;1.80;47.60;;;;;;2069763;28;20560;-68
2022/03/13 01:55:16;;;;;;;15.40;9.73;;;1.80;47.60;;;;;;2069748;28;20028;-68
2022/03/13 01:56:17;;;;;;;15.25;9.18;;;1.90;47.50;;;;;;2069941;28;20058;-68
2022/03/13 01:57:20;;;;;;;14.63;9.43;;;1.90;47.70;;;;;;2070441;28;20014;-68
2022/03/13 01:58:20;;;;;;;13.63;8.85;;;1.90;47.70;;;;;;2070486;28;20400;-68
2022/03/13 01:59:21;;;;;;;14.88;9.15;;;1.90;47.80;;;;;;2069791;28;20042;-68
2022/03/13 02:00:22;;;;;;;16.13;9.57;;;1.90;47.80;;;;;;2069848;28;20030;-67
2022/03/13 02:01:25;;;;;;;17.50;10.30;;;1.80;47.80;;;;;;2070565;28;20041;-67
2022/03/13 02:02:29;;;;;;;17.67;10.00;;;1.80;47.80;;;;;;2070553;28;20034;-68
2022/03/13 02:03:30;;;;;;;15.93;9.48;;;1.80;47.90;;;;;;2070463;28;20548;-69
2022/03/13 02:04:31;;;;;;;16.85;9.15;;;1.80;48.00;;;;;;2070805;28;20037;-67
2022/03/13 02:05:35;;;;;;;16.23;9.38;;;1.70;47.90;;;;;;2070554;28;20519;-67
2022/03/13 02:06:36;;;;;;;15.85;9.32;;;1.80;48.00;;;;;;2071136;28;20037;-70
2022/03/13 02:07:36;;;;;;;15.88;9.43;;;1.80;48.00;;;;;;2070563;28;20026;-68
2022/03/13 02:08:37;;;;;;;16.95;9.50;;;1.70;48.00;;;;;;2070325;28;20025;-69
2022/03/13 02:09:38;;;;;;;16.60;10.10;;;1.70;47.90;;;;;;2070830;28;20023;-69
2022/03/13 02:10:39;;;;;;;15.90;9.60;;;1.70;48.10;;;;;;2071093;28;20026;-68
2022/03/13 02:11:43;;;;;;;16.90;9.90;;;1.70;48.20;;;;;;2067855;28;20030;-68
2022/03/13 02:12:43;;;;;;;15.73;9.38;;;1.70;48.10;;;;;;2071293;28;20033;-69
2022/03/13 02:13:47;;;;;;;19.90;10.05;;;1.70;48.30;;;;;;2071347;28;20065;-69
2022/03/13 02:14:49;;;;;;;17.65;9.85;;;1.70;48.20;;;;;;2071697;28;20063;-67
2022/03/13 02:15:53;;;;;;;16.92;9.50;;;1.70;47.90;;;;;;2070896;28;20027;-68
2022/03/13 02:16:54;;;;;;;16.83;9.88;;;1.70;48.20;;;;;;2070446;28;20030;-67
2022/03/13 02:17:54;;;;;;;16.48;9.73;;;1.70;48.30;;;;;;2070525;28;20033;-68
2022/03/13 02:18:56;;;;;;;17.73;9.85;;;1.70;48.40;;;;;;2070345;28;20040;-66
2022/03/13 02:19:57;;;;;;;17.13;9.75;;;1.70;48.70;;;;;;2070229;28;20030;-67
2022/03/13 02:20:57;;;;;;;17.25;9.45;;;1.70;48.60;;;;;;2070341;28;20385;-67
2022/03/13 02:21:59;;;;;;;14.48;9.38;;;1.60;48.60;;;;;;2070255;28;20026;-68
2022/03/13 02:23:01;;;;;;;19.27;9.60;;;1.60;48.50;;;;;;2069751;28;20026;-68
2022/03/13 02:24:06;;;;;;;14.75;9.52;;;1.60;48.40;;;;;;2069931;28;20049;-68
2022/03/13 02:25:16;;;;;;;17.05;9.23;;;1.60;48.50;;;;;;2070308;28;20376;-68
2022/03/13 02:26:20;;;;;;;15.95;9.18;;;1.60;48.50;;;;;;2070236;28;20748;-68
2022/03/13 02:27:27;;;;;;;16.27;9.48;;;1.60;48.80;;;;;;2070195;28;20656;-68
2022/03/13 02:28:31;;;;;;;16.02;9.77;;;1.60;48.90;;;;;;2069400;28;20671;-68
2022/03/13 02:29:33;;;;;;;16.48;9.35;;;1.60;49.10;;;;;;2069431;28;20022;-68
2022/03/13 02:30:34;;;;;;;15.77;9.55;;;1.60;48.90;;;;;;2070010;28;20437;-69
2022/03/13 02:31:34;;;;;;;15.38;9.70;;;1.60;48.80;;;;;;2070096;28;20065;-69
2022/03/13 02:32:36;;;;;;;16.15;9.20;;;1.70;48.40;;;;;;2069899;28;20527;-68
2022/03/13 02:33:36;;;;;;;16.33;9.30;;;1.70;48.40;;;;;;2069339;28;20034;-69
2022/03/13 02:34:37;;;;;;;14.52;9.00;;;1.70;48.30;;;;;;2069405;28;20033;-68
2022/03/13 02:35:39;;;;;;;17.95;9.35;;;1.70;48.50;;;;;;2070074;28;20033;-68
2022/03/13 02:36:43;;;;;;;16.10;9.40;;;1.60;48.60;;;;;;2069922;28;20030;-68
2022/03/13 02:37:44;;;;;;;15.43;9.13;;;1.60;48.90;;;;;;2069402;28;20036;-68
2022/03/13 02:38:44;;;;;;;15.45;9.32;;;1.50;48.90;;;;;;2061248;28;20440;-68
2022/03/13 02:39:45;;;;;;;15.27;9.43;;;1.50;48.90;;;;;;2069347;28;20037;-68
2022/03/13 02:40:46;;;;;;;15.70;8.77;;;1.50;49.10;;;;;;2069890;28;20034;-68
2022/03/13 02:41:47;;;;;;;14.73;9.23;;;1.40;49.20;;;;;;2069463;28;20061;-68
2022/03/13 02:42:52;;;;;;;14.77;9.23;;;1.40;49.50;;;;;;2069163;28;20604;-68
2022/03/13 02:43:56;;;;;;;15.07;9.70;;;1.40;49.50;;;;;;2070072;28;20061;-68
2022/03/13 02:44:57;;;;;;;15.85;9.35;;;1.40;49.30;;;;;;2070155;28;20117;-67
2022/03/13 02:46:00;;;;;;;13.60;9.35;;;1.40;49.30;;;;;;2069808;28;20038;-67
2022/03/13 02:47:03;;;;;;;17.48;9.70;;;1.40;49.30;;;;;;2070047;28;20018;-67
2022/03/13 02:48:08;;;;;;;14.88;9.57;;;1.50;49.40;;;;;;2070002;28;20038;-67
2022/03/13 02:49:08;;;;;;;17.38;9.68;;;1.50;49.30;;;;;;2069922;28;20034;-68
2022/03/13 02:50:09;;;;;;;16.38;9.80;;;1.50;49.20;;;;;;2069882;28;20073;-67
2022/03/13 02:51:10;;;;;;;16.80;9.65;;;1.50;49.10;;;;;;2069970;28;20481;-69
2022/03/13 02:52:10;;;;;;;18.42;10.40;;;1.50;48.90;;;;;;2070047;28;20626;-70
2022/03/13 02:53:15;;;;;;;15.50;10.05;;;1.60;48.90;;;;;;2069708;28;20041;-68
2022/03/13 02:54:15;;;;;;;16.15;10.07;;;1.60;48.90;;;;;;2069976;28;20094;-68
2022/03/13 02:55:16;;;;;;;14.40;9.75;;;1.50;48.90;;;;;;2069769;28;20427;-68
2022/03/13 02:56:17;;;;;;;14.68;9.30;;;1.50;49.30;;;;;;2069333;28;20029;-68
2022/03/13 02:57:18;;;;;;;15.45;9.63;;;1.40;49.40;;;;;;2069693;28;20498;-68
2022/03/13 02:58:19;;;;;;;19.27;10.23;;;1.40;49.50;;;;;;2072077;28;20018;-68
2022/03/13 02:59:20;;;;;;;18.00;10.15;;;1.50;49.40;;;;;;2069693;28;20737;-68
2022/03/13 03:00:37;;;;;;;17.10;9.77;;;1.50;49.20;;;;;;2069502;28;20026;-69
2022/03/13 03:01:39;;;;;;;14.63;9.40;;;1.50;49.50;;;;;;2070005;28;20161;-68
2022/03/13 03:02:39;;;;;;;14.32;9.32;;;1.50;49.30;;;;;;2069770;28;20503;-69
2022/03/13 03:03:40;;;;;;;16.75;9.95;;;1.50;49.10;;;;;;2070013;28;20041;-69
2022/03/13 03:04:43;;;;;;;14.43;9.13;;;1.50;49.00;;;;;;2070225;28;20551;-68
2022/03/13 03:05:44;;;;;;;18.20;9.57;;;1.50;49.10;;;;;;2069425;28;20030;-69
2022/03/13 03:06:55;;;;;;;14.57;9.32;;;1.50;49.10;;;;;;2069387;28;20511;-69
2022/03/13 03:07:57;;;;;;;14.30;9.20;;;1.50;49.30;;;;;;2070070;28;20041;-69
2022/03/13 03:09:01;;;;;;;17.17;9.82;;;1.50;49.40;;;;;;2069414;28;20534;-68
2022/03/13 03:10:03;;;;;;;15.90;9.02;;;1.40;49.30;;;;;;2069309;28;20063;-69
2022/03/13 03:11:03;;;;;;;14.23;9.20;;;1.40;49.30;;;;;;2069339;28;20048;-68
2022/03/13 03:12:05;;;;;;;15.73;9.38;;;1.40;49.40;;;;;;2061153;28;20763;-68
2022/03/13 03:13:07;;;;;;;16.05;9.45;;;1.40;49.80;;;;;;2068870;28;20034;-68
2022/03/13 03:14:08;;;;;;;15.98;9.60;;;1.50;49.60;;;;;;2070038;28;20052;-68
2022/03/13 03:15:13;;;;;;;14.45;9.48;;;1.50;49.30;;;;;;2069952;28;20104;-69
2022/03/13 03:16:14;;;;;;;16.52;9.27;;;1.50;49.40;;;;;;2070137;28;20041;-69
2022/03/13 03:17:16;;;;;;;15.50;9.27;;;1.50;49.10;;;;;;2069985;28;20072;-68
2022/03/13 03:18:16;;;;;;;15.15;9.55;;;1.50;49.10;;;;;;2070078;28;20664;-69
2022/03/13 03:19:17;;;;;;;15.88;9.02;;;1.50;49.40;;;;;;2069925;28;20032;-68
2022/03/13 03:20:17;;;;;;;13.98;9.10;;;1.50;49.80;;;;;;2069786;28;20024;-68
2022/03/13 03:21:18;;;;;;;15.88;10.13;;;1.50;49.70;;;;;;2069818;28;20026;-68
2022/03/13 03:22:19;;;;;;;16.08;10.02;;;1.40;49.50;;;;;;2069893;28;20038;-68
2022/03/13 03:23:20;;;;;;;15.50;9.65;;;1.50;49.30;;;;;;2069637;28;20042;-69
2022/03/13 03:24:24;;;;;;;15.10;9.48;;;1.50;49.80;;;;;;2069917;28;20463;-68
2022/03/13 03:25:26;;;;;;;16.73;9.77;;;1.50;49.20;;;;;;2060935;28;20042;-69
2022/03/13 03:26:27;;;;;;;15.85;9.63;;;1.50;49.00;;;;;;2061278;28;20143;-68
2022/03/13 03:27:31;;;;;;;16.90;9.18;;;1.50;49.00;;;;;;2069871;28;20043;-68
2022/03/13 03:28:31;;;;;;;16.33;9.18;;;1.50;49.10;;;;;;2069900;28;20038;-69
2022/03/13 03:29:32;;;;;;;13.68;8.98;;;1.50;49.00;;;;;;2069872;28;20082;-68
2022/03/13 03:30:33;;;;;;;15.20;9.60;;;1.50;49.00;;;;;;2069868;28;20042;-68
2022/03/13 03:31:39;;;;;;;14.52;9.20;;;1.40;49.00;;;;;;2069789;28;20455;-68
2022/03/13 03:32:40;;;;;;;15.98;9.50;;;1.50;49.10;;;;;;2069505;28;20102;-68
2022/03/13 03:33:41;;;;;;;15.07;9.30;;;1.50;48.90;;;;;;2069837;28;20477;-68
2022/03/13 03:34:41;;;;;;;17.20;9.93;;;1.50;48.90;;;;;;2069860;28;20037;-68
2022/03/13 03:35:42;;;;;;;16.95;9.30;;;1.50;48.80;;;;;;2069526;28;20026;-68
2022/03/13 03:36:48;;;;;;;15.52;9.57;;;1.50;49.00;;;;;;2070729;28;20037;-68
2022/03/13 03:37:50;;;;;;;15.15;9.23;;;1.60;48.90;;;;;;2071197;28;20026;-68
2022/03/13 03:38:50;;;;;;;16.67;9.82;;;1.50;48.90;;;;;;2071299;28;20021;-68
2022/03/13 03:39:51;;;;;;;16.15;10.25;;;1.50;48.90;;;;;;2071151;28;20818;-68
2022/03/13 03:40:52;;;;;;;16.17;9.73;;;1.60;48.80;;;;;;2071201;28;20116;-68
2022/03/13 03:41:53;;;;;;;13.45;8.80;;;1.60;48.70;;;;;;2070635;28;20104;-69
2022/03/13 03:42:55;;;;;;;16.85;9.50;;;1.50;48.60;;;;;;2070465;28;20038;-67
2022/03/13 03:43:56;;;;;;;15.48;9.50;;;1.50;48.70;;;;;;2070538;28;20432;-67
2022/03/13 03:44:57;;;;;;;16.38;9.68;;;1.50;48.80;;;;;;2070961;28;20034;-67
2022/03/13 03:45:57;;;;;;;16.92;9.98;;;1.50;48.90;;;;;;2071660;28;20142;-67
2022/03/13 03:46:59;;;;;;;18.27;9.95;;;1.50;48.80;;;;;;2072745;28;20030;-67
2022/03/13 03:47:59;;;;;;;15.25;9.45;;;1.50;48.60;;;;;;2072080;28;20034;-67
2022/03/13 03:49:00;;;;;;;13.80;9.05;;;1.60;48.50;;;;;;2073113;28;20060;-68
2022/03/13 03:50:02;;;;;;;14.05;9.15;;;1.60;48.50;;;;;;2072201;28;20037;-68
2022/03/13 03:51:03;;;;;;;17.50;9.30;;;1.50;48.30;;;;;;2073022;28;20109;-69
2022/03/13 03:52:04;;;;;;;15.82;9.40;;;1.60;48.20;;;;;;2071317;28;20602;-69
2022/03/13 03:53:04;;;;;;;15.57;9.43;;;1.60;48.00;;;;;;2071054;28;20042;-66
2022/03/13 03:54:07;;;;;;;13.95;9.15;;;1.60;48.10;;;;;;2071335;28;20014;-68
2022/03/13 03:55:08;;;;;;;14.77;9.75;;;1.60;48.00;;;;;;2071217;28;20029;-67
2022/03/13 03:56:09;;;;;;;15.35;8.95;;;1.60;48.00;;;;;;2071080;28;20022;-67
2022/03/13 03:57:09;;;;;;;14.60;9.20;;;1.60;48.10;;;;;;2071124;28;20022;-68
2022/03/13 03:58:10;;;;;;;15.27;9.38;;;1.60;48.20;;;;;;2070995;28;20049;-69
2022/03/13 03:59:11;;;;;;;13.02;9.20;;;1.60;48.30;;;;;;2071049;28;20018;-69
2022/03/13 04:00:12;;;;;;;12.85;9.00;;;1.60;48.40;;;;;;2070900;28;20030;-68
2022/03/13 04:01:16;;;;;;;15.48;9.63;;;1.50;48.40;;;;;;2071176;28;20189;-69
2022/03/13 04:02:17;;;;;;;15.68;9.48;;;1.50;48.50;;;;;;2070972;28;20489;-68
2022/03/13 04:03:17;;;;;;;16.58;9.75;;;1.50;48.40;;;;;;2070696;28;20057;-68
2022/03/13 04:04:18;;;;;;;16.45;9.70;;;1.60;48.40;;;;;;2071015;28;20086;-68
2022/03/13 04:05:19;;;;;;;15.70;9.85;;;1.60;48.20;;;;;;2071204;28;20053;-68
2022/03/13 04:06:19;;;;;;;14.90;9.13;;;1.60;48.10;;;;;;2071124;28;20049;-68
2022/03/13 04:07:20;;;;;;;16.42;9.95;;;1.60;48.20;;;;;;2071054;28;20040;-68
2022/03/13 04:08:21;;;;;;;16.42;9.55;;;1.60;48.00;;;;;;2070616;28;20484;-67
2022/03/13 04:09:21;;;;;;;16.52;9.82;;;1.60;48.00;;;;;;2070526;28;20535;-69
2022/03/13 04:10:22;;;;;;;16.55;9.57;;;1.60;48.30;;;;;;2071059;28;20521;-69
2022/03/13 04:11:22;;;;;;;16.30;9.52;;;1.70;48.10;;;;;;2070626;28;20137;-68
2022/03/13 04:12:25;;;;;;;17.15;10.13;;;1.70;47.90;;;;;;2070526;28;20026;-69
2022/03/13 04:13:28;;;;;;;16.13;10.00;;;1.70;47.90;;;;;;2069972;28;20022;-67
2022/03/13 04:14:29;;;;;;;15.32;9.50;;;1.70;47.70;;;;;;2070401;28;20656;-67
2022/03/13 04:15:29;;;;;;;15.85;9.43;;;1.60;47.80;;;;;;2070939;28;20029;-68
2022/03/13 04:16:30;;;;;;;14.32;9.27;;;1.60;47.80;;;;;;2071022;28;20053;-68
2022/03/13 04:17:31;;;;;;;17.00;9.98;;;1.60;48.10;;;;;;2071019;28;20041;-67
2022/03/13 04:18:32;;;;;;;15.73;10.10;;;1.60;48.10;;;;;;2071086;28;20105;-69
2022/03/13 04:19:33;;;;;;;16.65;10.07;;;1.60;47.90;;;;;;2071059;28;20113;-68
2022/03/13 04:20:33;;;;;;;16.65;9.85;;;1.70;47.90;;;;;;2070824;28;20112;-68
2022/03/13 04:21:35;;;;;;;14.70;9.35;;;1.70;47.90;;;;;;2070220;28;20029;-68
2022/03/13 04:22:35;;;;;;;15.25;9.82;;;1.70;48.00;;;;;;2070514;28;20037;-68
2022/03/13 04:23:36;;;;;;;17.70;10.65;;;1.70;48.20;;;;;;2070915;28;20034;-67
2022/03/13 04:24:37;;;;;;;17.90;10.50;;;1.70;48.20;;;;;;2070260;28;20120;-67
2022/03/13 04:25:38;;;;;;;16.67;10.30;;;1.70;47.90;;;;;;2070224;28;20120;-67
2022/03/13 04:26:40;;;;;;;15.52;10.50;;;1.60;47.70;;;;;;2070866;28;20018;-67
2022/03/13 04:27:41;;;;;;;17.08;10.40;;;1.70;47.60;;;;;;2071027;28;20548;-68
2022/03/13 04:28:42;;;;;;;14.65;9.27;;;1.70;47.40;;;;;;2071055;28;20022;-68
2022/03/13 04:29:42;;;;;;;16.10;10.18;;;1.80;48.00;;;;;;2070847;28;20077;-67
2022/03/13 04:30:44;;;;;;;16.15;10.23;;;1.80;47.60;;;;;;2070017;28;20058;-67
2022/03/13 04:31:45;;;;;;;15.93;9.55;;;1.70;47.60;;;;;;2070287;28;20066;-67
2022/03/13 04:32:47;;;;;;;16.48;10.20;;;1.70;47.60;;;;;;2070727;28;20025;-67
2022/03/13 04:33:48;;;;;;;17.60;10.25;;;1.70;47.70;;;;;;2070898;28;20026;-67
2022/03/13 04:34:49;;;;;;;18.52;10.63;;;1.70;47.80;;;;;;2071040;28;20140;-67
2022/03/13 04:35:49;;;;;;;14.77;9.90;;;1.70;47.70;;;;;;2070869;28;20075;-67
2022/03/13 04:36:50;;;;;;;16.33;10.05;;;1.80;47.90;;;;;;2070893;28;20029;-67
2022/03/13 04:37:50;;;;;;;14.57;9.77;;;1.70;47.90;;;;;;2070979;28;20034;-68
2022/03/13 04:38:51;;;;;;;16.65;10.35;;;1.70;47.70;;;;;;2070835;28;20026;-67
2022/03/13 04:39:52;;;;;;;16.15;10.25;;;1.70;47.80;;;;;;2070940;28;20067;-67
2022/03/13 04:40:54;;;;;;;17.60;10.35;;;1.70;48.00;;;;;;2070819;28;20451;-68
2022/03/13 04:41:55;;;;;;;17.17;10.60;;;1.70;48.10;;;;;;2070874;28;20153;-70
2022/03/13 04:42:55;;;;;;;16.98;10.48;;;1.60;48.00;;;;;;2070743;28;20173;-68
2022/03/13 04:43:56;;;;;;;18.83;10.25;;;1.70;48.00;;;;;;2070813;28;20485;-68
2022/03/13 04:44:57;;;;;;;15.15;9.82;;;1.70;47.90;;;;;;2070939;28;20056;-68
2022/03/13 04:45:57;;;;;;;17.00;10.23;;;1.70;47.90;;;;;;2070242;28;20037;-67
2022/03/13 04:46:59;;;;;;;17.60;10.35;;;1.60;48.10;;;;;;2070561;28;20030;-68
2022/03/13 04:47:59;;;;;;;16.98;10.73;;;1.60;48.20;;;;;;2070580;28;20029;-67
2022/03/13 04:49:00;;;;;;;18.33;10.65;;;1.60;48.30;;;;;;2070549;28;20054;-67
2022/03/13 04:50:00;;;;;;;16.73;10.18;;;1.60;48.20;;;;;;2071113;28;20109;-68
2022/03/13 04:51:02;;;;;;;18.80;10.85;;;1.60;48.10;;;;;;2070480;28;20030;-68
2022/03/13 04:52:04;;;;;;;16.52;10.30;;;1.60;48.00;;;;;;2070510;28;20038;-67
2022/03/13 04:53:06;;;;;;;16.25;10.68;;;1.60;48.10;;;;;;2070812;28;20042;-70
2022/03/13 04:54:08;;;;;;;16.63;10.20;;;1.60;48.50;;;;;;2071036;28;20499;-68
2022/03/13 04:55:09;;;;;;;18.33;10.57;;;1.60;48.40;;;;;;2071157;28;20666;-67
2022/03/13 04:56:10;;;;;;;16.75;10.52;;;1.60;48.40;;;;;;2071195;28;20053;-67
2022/03/13 04:57:11;;;;;;;17.73;10.43;;;1.60;48.50;;;;;;2070930;28;20117;-68
2022/03/13 04:58:11;;;;;;;18.23;11.30;;;1.50;48.50;;;;;;2070869;28;20026;-68
2022/03/13 04:59:12;;;;;;;15.77;10.57;;;1.50;48.70;;;;;;2070099;28;20026;-67
2022/03/13 05:00:13;;;;;;;16.58;10.55;;;1.50;48.50;;;;;;2070253;28;20064;-69
2022/03/13 05:01:14;;;;;;;17.17;10.40;;;1.50;48.50;;;;;;2070604;28;20021;-68
2022/03/13 05:02:14;;;;;;;17.77;10.80;;;1.50;48.50;;;;;;2070591;28;20033;-68
2022/03/13 05:03:19;;;;;;;16.75;10.57;;;1.50;48.40;;;;;;2070461;28;20651;-68
2022/03/13 05:04:19;;;;;;;18.05;10.07;;;1.50;48.30;;;;;;2070601;28;20071;-68
2022/03/13 05:05:21;;;;;;;17.80;10.52;;;1.50;48.40;;;;;;2070690;28;20070;-68
2022/03/13 05:06:21;;;;;;;14.18;9.32;;;1.50;48.60;;;;;;2070665;28;20049;-69
2022/03/13 05:07:24;;;;;;;15.75;10.25;;;1.50;48.80;;;;;;2071196;28;20063;-68
2022/03/13 05:08:26;;;;;;;17.48;10.68;;;1.50;48.80;;;;;;2071106;28;20116;-68
2022/03/13 05:09:26;;;;;;;15.98;10.40;;;1.50;48.70;;;;;;2071125;28;20026;-69
2022/03/13 05:10:36;;;;;;;15.73;10.20;;;1.50;48.80;;;;;;2070886;28;20038;-69
2022/03/13 05:11:38;;;;;;;17.67;10.77;;;1.50;49.00;;;;;;2071364;28;20079;-70
2022/03/13 05:12:39;;;;;;;17.55;10.70;;;1.50;49.00;;;;;;2071014;28;20034;-68
2022/03/13 05:13:40;;;;;;;17.38;11.10;;;1.50;49.00;;;;;;2071241;28;20485;-67
2022/03/13 05:14:40;;;;;;;16.75;10.40;;;1.40;49.10;;;;;;2071282;28;20034;-69
2022/03/13 05:15:43;;;;;;;20.23;10.90;;;1.50;49.00;;;;;;2070794;28;20050;-70
2022/03/13 05:16:43;;;;;;;18.48;10.30;;;1.50;48.70;;;;;;2070600;28;20404;-68
2022/03/13 05:17:44;;;;;;;17.17;10.27;;;1.50;48.50;;;;;;2070768;28;20034;-68
2022/03/13 05:18:44;;;;;;;17.30;10.40;;;1.50;48.60;;;;;;2069740;28;20034;-68
2022/03/13 05:19:45;;;;;;;15.25;10.27;;;1.50;48.60;;;;;;2069981;28;20650;-68
2022/03/13 05:20:46;;;;;;;15.68;10.20;;;1.60;48.50;;;;;;2070644;28;20026;-68
2022/03/13 05:21:46;;;;;;;16.25;10.55;;;1.50;48.50;;;;;;2070994;28;20040;-69